Royal Lakes, Illinois
Current Conditions -  °F | °C
As of 11:45 AM on Saturday 20 Dec 2014 (Local Time) from KALN Reporting Station
Overcast Overcast  
Wind Chill:   Ceiling: 1700
Heat Index:   Visibility: 7mi
Dew Point: -1°   Wind: 7mph
Humidity: 75%   Direction: 170°S
Pressure: 30.26"   Gusts: NA
Location:  39.138°N, 90.0562°W
Report Text: KALN 201745Z 17006KT 7SM OVC017 03/M01 A3026
Loading
Personal Weather Stations






























Interactive Weather Map New forecast layout! Learn more

10-Day Weather Forecast

Advertisements
Track Severe Weather on mobile